createdAt,value
2018-02-02T01:39:12.141Z,59.41
2018-02-02T01:39:12.650Z,59.50
2018-02-02T01:39:13.246Z,59.69
2018-02-02T01:39:13.846Z,59.69
2018-02-02T01:39:14.449Z,59.69
2018-02-02T01:39:15.046Z,59.69
2018-02-02T01:39:15.645Z,59.69
2018-02-02T01:40:10.155Z,60.64
2018-02-02T01:40:10.753Z,60.25
2018-02-02T01:40:11.352Z,60.25
2018-02-02T01:40:11.952Z,60.25
2018-02-02T01:40:12.550Z,60.35
2018-02-02T01:40:13.151Z,60.64
2018-02-02T01:40:13.751Z,60.54
2018-02-02T01:40:14.350Z,60.73
2018-02-02T01:41:08.831Z,61.02
2018-02-02T01:41:09.428Z,61.21
2018-02-02T01:41:10.028Z,60.54
2018-02-02T01:41:10.628Z,60.54
2018-02-02T01:41:11.227Z,61.21
2018-02-02T01:41:11.826Z,60.73
2018-02-02T01:41:12.426Z,61.02
2018-02-02T01:41:13.028Z,61.02
2018-02-02T01:42:06.516Z,60.64
2018-02-02T01:42:07.084Z,61.02
2018-02-02T01:42:07.679Z,60.64
2018-02-02T01:42:08.279Z,60.64
2018-02-02T01:42:08.882Z,60.54
2018-02-02T01:42:09.484Z,60.54
2018-02-02T01:42:10.080Z,60.64
2018-02-02T01:42:10.680Z,60.64
2018-02-02T01:43:05.165Z,60.83
2018-02-02T01:43:05.757Z,60.92
2018-02-02T01:43:06.355Z,61.02
2018-02-02T01:43:06.957Z,60.92
2018-02-02T01:43:07.555Z,61.11
2018-02-02T01:43:08.155Z,61.02
2018-02-02T01:43:08.756Z,60.83
2018-02-02T01:43:09.356Z,60.92
2018-02-02T01:44:03.835Z,61.49
2018-02-02T01:44:04.432Z,61.30
2018-02-02T01:44:05.033Z,61.40
2018-02-02T01:44:05.632Z,61.30
2018-02-02T01:44:06.230Z,61.49
2018-02-02T01:44:06.831Z,61.49
2018-02-02T01:44:07.431Z,61.40
2018-02-02T01:44:08.030Z,61.49
2018-02-02T01:45:01.492Z,62.53
2018-02-02T01:45:02.084Z,61.87
2018-02-02T01:45:02.684Z,61.77
2018-02-02T01:45:03.285Z,61.87
2018-02-02T01:45:03.886Z,61.77
2018-02-02T01:45:04.489Z,61.87
2018-02-02T01:45:05.084Z,62.43
2018-02-02T01:45:05.683Z,62.62
2018-02-02T01:46:00.162Z,61.87
2018-02-02T01:46:00.759Z,62.53
2018-02-02T01:46:01.360Z,62.24
2018-02-02T01:46:01.959Z,61.77
2018-02-02T01:46:02.558Z,61.77
2018-02-02T01:46:03.158Z,61.87
2018-02-02T01:46:03.759Z,61.87
2018-02-02T01:46:04.358Z,61.87
2018-02-02T01:46:58.840Z,62.05
2018-02-02T01:46:59.437Z,62.05
2018-02-02T01:47:00.038Z,61.87
2018-02-02T01:47:00.637Z,61.77
2018-02-02T01:47:01.237Z,61.77
2018-02-02T01:47:01.836Z,61.87
2018-02-02T01:47:02.434Z,61.77
2018-02-02T01:47:03.035Z,62.53
2018-02-02T01:47:56.516Z,62.24
2018-02-02T01:47:57.091Z,61.77
2018-02-02T01:47:57.688Z,61.96
2018-02-02T01:47:58.288Z,61.96
2018-02-02T01:47:58.902Z,62.15
2018-02-02T01:47:59.491Z,61.87
2018-02-02T01:48:00.090Z,61.96
2018-02-02T01:48:00.689Z,61.87
2018-02-02T01:48:54.144Z,62.72
2018-02-02T01:48:54.741Z,62.62
2018-02-02T01:48:55.341Z,62.72
2018-02-02T01:48:55.940Z,62.82
2018-02-02T01:48:56.538Z,62.62
2018-02-02T01:48:57.139Z,62.62
2018-02-02T01:48:57.744Z,62.62
2018-02-02T01:48:58.338Z,62.62
2018-02-02T01:49:52.818Z,63.57
2018-02-02T01:49:53.416Z,63.10
2018-02-02T01:49:54.014Z,63.29
2018-02-02T01:49:54.615Z,63.10
2018-02-02T01:49:55.215Z,63.29
2018-02-02T01:49:55.816Z,63.10
2018-02-02T01:49:56.417Z,63.29
2018-02-02T01:49:57.013Z,63.39
2018-02-02T01:50:50.471Z,64.33
2018-02-02T01:50:51.067Z,64.52
2018-02-02T01:50:51.666Z,64.33
2018-02-02T01:50:52.267Z,64.52
2018-02-02T01:50:52.866Z,64.14
2018-02-02T01:50:53.467Z,64.61
2018-02-02T01:50:54.066Z,64.23
2018-02-02T01:50:54.666Z,64.42
2018-02-02T01:51:48.122Z,64.71
2018-02-02T01:51:48.722Z,64.81
2018-02-02T01:51:49.319Z,64.71
2018-02-02T01:51:49.922Z,64.61
2018-02-02T01:51:50.519Z,64.61
2018-02-02T01:51:51.119Z,64.90
2018-02-02T01:51:51.718Z,64.81
2018-02-02T01:51:52.318Z,64.81
2018-02-02T01:52:45.808Z,66.22
2018-02-02T01:52:46.374Z,65.75
2018-02-02T01:52:46.970Z,65.94
2018-02-02T01:52:47.570Z,65.94
2018-02-02T01:52:48.171Z,66.13
2018-02-02T01:52:48.770Z,66.13
2018-02-02T01:52:49.371Z,66.13
2018-02-02T01:52:49.970Z,66.22
2018-02-02T01:53:43.427Z,66.32
2018-02-02T01:53:44.023Z,66.35
2018-02-02T01:53:44.621Z,66.32
2018-02-02T01:53:45.223Z,66.32
2018-02-02T01:53:45.823Z,66.41
2018-02-02T01:53:46.421Z,66.51
2018-02-02T01:53:47.021Z,66.13
2018-02-02T01:53:47.627Z,66.22
2018-02-02T01:54:53.775Z,68.59
2018-02-02T01:54:54.374Z,68.31
2018-02-02T01:54:54.971Z,68.40
2018-02-02T01:54:55.583Z,68.69
2018-02-02T01:54:56.172Z,68.21
2018-02-02T01:54:56.771Z,68.50
2018-02-02T01:54:57.371Z,68.59
2018-02-02T01:54:57.971Z,68.79
2018-02-02T01:55:51.432Z,69.54
2018-02-02T01:55:52.022Z,69.57
2018-02-02T01:55:52.623Z,69.07
2018-02-02T01:55:53.223Z,69.35
2018-02-02T01:55:53.823Z,69.26
2018-02-02T01:55:54.422Z,68.98
2018-02-02T01:55:55.022Z,69.07
2018-02-02T01:55:55.621Z,69.54
2018-02-02T01:56:50.167Z,71.09
2018-02-02T01:56:50.703Z,71.06
2018-02-02T01:56:51.300Z,71.06
2018-02-02T01:56:51.899Z,70.97
2018-02-02T01:56:52.499Z,71.34
2018-02-02T01:56:53.099Z,71.44
2018-02-02T01:56:53.706Z,71.25
2018-02-02T01:56:54.298Z,71.47
2018-02-02T01:57:48.809Z,71.06
2018-02-02T01:57:49.375Z,71.09
2018-02-02T01:57:49.975Z,71.38
2018-02-02T01:57:50.574Z,71.09
2018-02-02T01:57:51.173Z,71.25
2018-02-02T01:57:51.773Z,71.25
2018-02-02T01:57:52.428Z,71.25
2018-02-02T01:57:52.975Z,71.28
2018-02-02T01:58:47.454Z,71.76
2018-02-02T01:58:48.051Z,71.76
2018-02-02T01:58:48.651Z,71.95
2018-02-02T01:58:49.251Z,71.57
2018-02-02T01:58:49.851Z,71.66
2018-02-02T01:58:50.450Z,71.76
2018-02-02T01:58:51.050Z,71.76
2018-02-02T01:58:51.651Z,71.76
2018-02-02T01:59:45.108Z,72.33
2018-02-02T01:59:45.706Z,73.27
2018-02-02T01:59:46.304Z,73.27
2018-02-02T01:59:46.903Z,73.18
2018-02-02T01:59:47.503Z,73.18
2018-02-02T01:59:48.103Z,72.42
2018-02-02T01:59:48.702Z,72.89
2018-02-02T01:59:49.302Z,73.18
2018-02-02T02:00:42.757Z,74.22
2018-02-02T02:00:43.355Z,74.22
2018-02-02T02:00:43.954Z,74.22
2018-02-02T02:00:44.554Z,74.22
2018-02-02T02:00:45.154Z,74.32
2018-02-02T02:00:45.754Z,74.41
2018-02-02T02:00:46.354Z,74.32
2018-02-02T02:00:46.956Z,74.32
2018-02-02T02:01:40.410Z,75.55
2018-02-02T02:01:41.007Z,75.45
2018-02-02T02:01:41.606Z,75.45
2018-02-02T02:01:42.206Z,75.45
2018-02-02T02:01:42.805Z,75.45
2018-02-02T02:01:43.408Z,75.26
2018-02-02T02:01:44.006Z,75.36
2018-02-02T02:01:44.604Z,75.45
2018-02-02T02:02:39.084Z,75.26
2018-02-02T02:02:39.682Z,75.64
2018-02-02T02:02:40.281Z,75.55
2018-02-02T02:02:40.883Z,75.17
2018-02-02T02:02:41.481Z,75.84
2018-02-02T02:02:42.080Z,75.26
2018-02-02T02:02:42.681Z,75.26
2018-02-02T02:02:43.281Z,75.55
2018-02-02T02:03:36.771Z,76.59
2018-02-02T02:03:37.334Z,76.59
2018-02-02T02:03:37.934Z,76.40
2018-02-02T02:03:38.534Z,76.40
2018-02-02T02:03:39.134Z,76.40
2018-02-02T02:03:39.732Z,76.40
2018-02-02T02:03:40.333Z,76.59
2018-02-02T02:03:40.936Z,76.40
2018-02-02T02:04:34.389Z,76.31
2018-02-02T02:04:34.986Z,76.40
2018-02-02T02:04:35.585Z,76.40
2018-02-02T02:04:36.186Z,76.40
2018-02-02T02:04:36.785Z,76.31
2018-02-02T02:04:37.386Z,76.31
2018-02-02T02:04:37.984Z,76.31
2018-02-02T02:04:38.585Z,76.31
2018-02-02T02:05:32.042Z,76.31
2018-02-02T02:05:32.638Z,76.31
2018-02-02T02:05:33.238Z,76.40
2018-02-02T02:05:33.837Z,76.21
2018-02-02T02:05:34.438Z,76.59
2018-02-02T02:05:35.044Z,76.87
2018-02-02T02:05:35.637Z,76.97
2018-02-02T02:05:36.235Z,77.06
2018-02-02T02:06:29.692Z,78.11
2018-02-02T02:06:30.290Z,77.35
2018-02-02T02:06:30.889Z,77.16
2018-02-02T02:06:31.490Z,78.02
2018-02-02T02:06:32.088Z,78.30
2018-02-02T02:06:32.690Z,78.02
2018-02-02T02:06:33.288Z,77.92
2018-02-02T02:06:33.890Z,77.92
2018-02-02T02:07:27.345Z,78.49
2018-02-02T02:07:27.941Z,78.77
2018-02-02T02:07:28.541Z,78.49
2018-02-02T02:07:29.141Z,78.67
2018-02-02T02:07:29.740Z,78.77
2018-02-02T02:07:30.341Z,78.67
2018-02-02T02:07:30.944Z,78.67
2018-02-02T02:07:31.540Z,78.58
2018-02-02T02:08:24.996Z,79.34
2018-02-02T02:08:25.593Z,78.96
2018-02-02T02:08:26.193Z,78.96
2018-02-02T02:08:26.791Z,79.15
2018-02-02T02:08:27.390Z,78.96
2018-02-02T02:08:27.992Z,78.96
2018-02-02T02:08:28.591Z,78.87
2018-02-02T02:08:29.192Z,78.96
2018-02-02T02:09:35.793Z,79.91
2018-02-02T02:09:36.297Z,79.82
2018-02-02T02:09:36.896Z,79.34
2018-02-02T02:09:37.495Z,79.34
2018-02-02T02:09:38.096Z,79.53
2018-02-02T02:09:38.695Z,79.53
2018-02-02T02:09:39.296Z,79.44
2018-02-02T02:09:39.895Z,79.63
2018-02-02T02:10:33.920Z,80.19
2018-02-02T02:10:34.516Z,80.29
2018-02-02T02:10:35.115Z,80.48
2018-02-02T02:10:35.715Z,80.10
2018-02-02T02:10:36.315Z,80.10
2018-02-02T02:10:36.913Z,80.48
2018-02-02T02:10:37.514Z,80.48
2018-02-02T02:10:38.115Z,80.48
2018-02-02T02:11:31.572Z,80.95
2018-02-02T02:11:32.167Z,80.67
2018-02-02T02:11:32.767Z,80.86
2018-02-02T02:11:33.367Z,80.95
2018-02-02T02:11:33.969Z,80.86
2018-02-02T02:11:34.568Z,80.67
2018-02-02T02:11:35.170Z,80.95
2018-02-02T02:11:35.766Z,80.95
2018-02-02T02:12:29.221Z,80.95
2018-02-02T02:12:29.819Z,81.24
2018-02-02T02:12:30.419Z,81.24
2018-02-02T02:12:31.018Z,81.62
2018-02-02T02:12:31.618Z,81.52
2018-02-02T02:12:32.219Z,81.52
2018-02-02T02:12:32.821Z,81.52
2018-02-02T02:12:33.418Z,81.52
2018-02-02T02:13:26.874Z,81.71
2018-02-02T02:13:27.470Z,81.71
2018-02-02T02:13:28.069Z,81.90
2018-02-02T02:13:28.671Z,81.81
2018-02-02T02:13:29.269Z,81.24
2018-02-02T02:13:29.869Z,81.52
2018-02-02T02:13:30.470Z,81.33
2018-02-02T02:13:31.069Z,81.24
2018-02-02T02:14:24.525Z,81.43
2018-02-02T02:14:25.121Z,81.52
2018-02-02T02:14:25.721Z,81.43
2018-02-02T02:14:26.321Z,81.43
2018-02-02T02:14:26.922Z,81.33
2018-02-02T02:14:27.522Z,81.52
2018-02-02T02:14:28.125Z,81.43
2018-02-02T02:14:28.720Z,81.52
2018-02-02T02:15:22.207Z,82.37
2018-02-02T02:15:22.773Z,82.28
2018-02-02T02:15:23.372Z,82.28
2018-02-02T02:15:23.975Z,82.18
2018-02-02T02:15:24.572Z,81.99
2018-02-02T02:15:25.171Z,82.37
2018-02-02T02:15:25.773Z,82.56
2018-02-02T02:15:26.372Z,82.47
2018-02-02T02:16:20.853Z,82.94
2018-02-02T02:16:21.448Z,83.32
2018-02-02T02:16:22.047Z,82.94
2018-02-02T02:16:22.653Z,83.23
2018-02-02T02:16:23.245Z,83.32
2018-02-02T02:16:23.846Z,83.23
2018-02-02T02:16:24.444Z,83.23
2018-02-02T02:16:25.046Z,82.75
2018-02-02T02:17:18.504Z,83.32
2018-02-02T02:17:19.101Z,83.32
2018-02-02T02:17:19.700Z,83.23
2018-02-02T02:17:20.301Z,82.94
2018-02-02T02:17:20.900Z,82.94
2018-02-02T02:17:21.501Z,83.23
2018-02-02T02:17:22.106Z,83.32
2018-02-02T02:17:22.700Z,82.94
2018-02-02T02:18:16.156Z,84.17
2018-02-02T02:18:16.752Z,84.08
2018-02-02T02:18:17.352Z,83.80
2018-02-02T02:18:17.952Z,83.80
2018-02-02T02:18:18.551Z,83.89
2018-02-02T02:18:19.151Z,84.08
2018-02-02T02:18:19.756Z,83.98
2018-02-02T02:18:20.351Z,83.80
2018-02-02T02:19:13.810Z,84.36
2018-02-02T02:19:14.405Z,84.36
2018-02-02T02:19:15.006Z,84.36
2018-02-02T02:19:15.607Z,84.84
2018-02-02T02:19:16.205Z,84.55
2018-02-02T02:19:16.805Z,84.55
2018-02-02T02:19:17.406Z,84.55
2018-02-02T02:19:18.003Z,84.55
2018-02-02T02:20:11.458Z,84.27
2018-02-02T02:20:12.056Z,84.08
2018-02-02T02:20:12.655Z,84.17
2018-02-02T02:20:13.255Z,84.17
2018-02-02T02:20:13.856Z,84.08
2018-02-02T02:20:14.456Z,84.27
2018-02-02T02:20:15.058Z,84.17
2018-02-02T02:20:15.655Z,84.27
2018-02-02T02:21:09.147Z,84.94
2018-02-02T02:21:09.707Z,84.94
2018-02-02T02:21:10.306Z,85.13
2018-02-02T02:21:10.907Z,85.13
2018-02-02T02:21:11.507Z,85.13
2018-02-02T02:21:12.106Z,85.13
2018-02-02T02:21:12.706Z,85.22
2018-02-02T02:21:13.310Z,85.50
2018-02-02T02:22:06.763Z,85.22
2018-02-02T02:22:07.362Z,85.13
2018-02-02T02:22:07.959Z,84.94
2018-02-02T02:22:08.559Z,85.60
2018-02-02T02:22:09.158Z,85.22
2018-02-02T02:22:09.760Z,85.13
2018-02-02T02:22:10.362Z,85.13
2018-02-02T02:22:10.957Z,85.31
2018-02-02T02:23:04.419Z,85.13
2018-02-02T02:23:05.014Z,85.31
2018-02-02T02:23:05.608Z,85.13
2018-02-02T02:23:06.208Z,85.22
2018-02-02T02:23:06.808Z,84.94
2018-02-02T02:23:07.408Z,84.94
2018-02-02T02:23:08.012Z,85.41
2018-02-02T02:23:08.608Z,85.50
2018-02-02T02:24:02.066Z,85.22
2018-02-02T02:24:02.662Z,84.94
2018-02-02T02:24:03.261Z,84.94
2018-02-02T02:24:03.861Z,84.94
2018-02-02T02:24:04.461Z,84.94
2018-02-02T02:24:05.062Z,84.84
2018-02-02T02:24:05.665Z,85.03
2018-02-02T02:24:06.264Z,85.13
2018-02-02T02:24:59.718Z,85.69
2018-02-02T02:25:00.314Z,85.88
2018-02-02T02:25:00.915Z,86.07
2018-02-02T02:25:01.520Z,86.16
2018-02-02T02:25:02.115Z,86.35
2018-02-02T02:25:02.717Z,86.45
2018-02-02T02:25:03.320Z,86.35
2018-02-02T02:25:03.913Z,86.45
2018-02-02T02:25:57.369Z,85.78
2018-02-02T02:25:57.967Z,86.16
2018-02-02T02:25:58.567Z,85.78
2018-02-02T02:25:59.166Z,86.07
2018-02-02T02:25:59.765Z,86.16
2018-02-02T02:26:00.365Z,85.88
2018-02-02T02:26:00.969Z,85.88
2018-02-02T02:26:01.565Z,85.69
2018-02-02T02:26:55.053Z,86.45
2018-02-02T02:26:55.619Z,86.45
2018-02-02T02:26:56.220Z,86.55
2018-02-02T02:26:56.816Z,86.55
2018-02-02T02:26:57.416Z,86.45
2018-02-02T02:26:58.018Z,86.55
2018-02-02T02:26:58.620Z,86.55
2018-02-02T02:26:59.216Z,86.64
2018-02-02T02:27:52.673Z,86.83
2018-02-02T02:27:53.269Z,86.93
2018-02-02T02:27:53.868Z,86.74
2018-02-02T02:27:54.467Z,86.74
2018-02-02T02:27:55.069Z,86.83
2018-02-02T02:27:55.669Z,86.83
2018-02-02T02:27:56.273Z,86.93
2018-02-02T02:27:56.870Z,86.93
2018-02-02T02:28:50.328Z,86.74
2018-02-02T02:28:50.921Z,86.83
2018-02-02T02:28:51.523Z,86.83
2018-02-02T02:28:52.120Z,86.93
2018-02-02T02:28:52.723Z,87.02
2018-02-02T02:28:53.322Z,87.02
2018-02-02T02:28:53.924Z,86.83
2018-02-02T02:28:54.521Z,87.02
2018-02-02T02:29:47.975Z,87.30
2018-02-02T02:29:48.572Z,87.40
2018-02-02T02:29:49.172Z,87.30
2018-02-02T02:29:49.773Z,87.40
2018-02-02T02:29:50.372Z,87.21
2018-02-02T02:29:50.971Z,87.35
2018-02-02T02:29:51.574Z,87.77
2018-02-02T02:29:52.171Z,87.30
2018-02-02T02:30:45.629Z,87.02
2018-02-02T02:30:46.224Z,86.93
2018-02-02T02:30:46.823Z,86.74
2018-02-02T02:30:47.423Z,86.64
2018-02-02T02:30:48.024Z,86.83
2018-02-02T02:30:48.624Z,86.93
2018-02-02T02:30:49.225Z,86.93
2018-02-02T02:30:49.822Z,86.83
2018-02-02T02:31:43.279Z,87.68
2018-02-02T02:31:43.875Z,87.77
2018-02-02T02:31:44.476Z,87.49
2018-02-02T02:31:45.074Z,87.68
2018-02-02T02:31:45.676Z,87.77
2018-02-02T02:31:46.278Z,87.77
2018-02-02T02:31:46.876Z,87.30
2018-02-02T02:31:47.475Z,87.40
2018-02-02T02:32:40.962Z,88.16
2018-02-02T02:32:41.527Z,88.16
2018-02-02T02:32:42.127Z,88.16
2018-02-02T02:32:42.728Z,88.16
2018-02-02T02:32:43.326Z,88.16
2018-02-02T02:32:43.928Z,88.16
2018-02-02T02:32:44.531Z,88.06
2018-02-02T02:32:45.128Z,88.16
2018-02-02T02:33:38.580Z,88.06
2018-02-02T02:33:39.181Z,88.06
2018-02-02T02:33:39.780Z,87.68
2018-02-02T02:33:40.379Z,87.68
2018-02-02T02:33:40.979Z,87.68
2018-02-02T02:33:41.579Z,87.77
2018-02-02T02:33:42.182Z,87.77
2018-02-02T02:33:42.782Z,87.87
2018-02-02T02:53:02.333Z,86.83
2018-02-02T02:53:02.848Z,86.93
2018-02-02T02:53:03.441Z,86.83
2018-02-02T02:53:04.037Z,86.74
2018-02-02T02:53:04.636Z,86.93
2018-02-02T02:53:05.236Z,87.02
2018-02-02T02:53:05.837Z,86.83
2018-02-02T02:53:59.300Z,86.45
2018-02-02T02:53:59.900Z,86.35
2018-02-02T02:54:00.496Z,86.45
2018-02-02T02:54:01.123Z,86.45
2018-02-02T02:54:01.699Z,86.45
2018-02-02T02:54:02.336Z,86.45
2018-02-02T02:54:02.896Z,86.45
2018-02-02T02:54:03.495Z,86.45
2018-02-02T02:54:56.950Z,85.60
2018-02-02T02:54:57.548Z,85.41
2018-02-02T02:54:58.146Z,85.50
2018-02-02T02:54:58.746Z,84.94
2018-02-02T02:54:59.346Z,85.50
2018-02-02T02:54:59.946Z,85.31
2018-02-02T02:55:00.546Z,85.31
2018-02-02T02:55:01.158Z,85.41
2018-02-02T02:55:54.604Z,85.69
2018-02-02T02:55:55.199Z,86.16
2018-02-02T02:55:55.798Z,86.07
2018-02-02T02:55:56.400Z,85.69
2018-02-02T02:55:56.997Z,86.07
2018-02-02T02:55:57.598Z,85.69
2018-02-02T02:55:58.198Z,85.60
2018-02-02T02:55:58.808Z,85.60
2018-02-02T02:56:53.278Z,85.13
2018-02-02T02:56:53.876Z,85.31
2018-02-02T02:56:54.474Z,84.94
2018-02-02T02:56:55.074Z,85.31
2018-02-02T02:56:55.674Z,85.03
2018-02-02T02:56:56.284Z,85.31
2018-02-02T02:56:56.874Z,85.13
2018-02-02T02:56:57.472Z,85.13
2018-02-02T02:57:50.933Z,85.41
2018-02-02T02:57:51.526Z,85.22
2018-02-02T02:57:52.127Z,85.31
2018-02-02T02:57:52.727Z,85.03
2018-02-02T02:57:53.327Z,84.94
2018-02-02T02:57:53.934Z,85.41
2018-02-02T02:57:54.527Z,85.50
2018-02-02T02:57:55.126Z,85.41
2018-02-02T02:58:49.639Z,84.84
2018-02-02T02:58:50.203Z,84.84
2018-02-02T02:58:50.803Z,84.84
2018-02-02T02:58:51.415Z,84.84
2018-02-02T02:58:52.001Z,84.84
2018-02-02T02:58:52.601Z,84.84
2018-02-02T02:58:53.201Z,84.74
2018-02-02T02:58:53.803Z,84.74
2018-02-02T02:59:48.282Z,84.27
2018-02-02T02:59:48.877Z,84.46
2018-02-02T02:59:49.477Z,84.55
2018-02-02T02:59:50.077Z,83.98
2018-02-02T02:59:50.677Z,84.36
2018-02-02T02:59:51.277Z,84.36
2018-02-02T02:59:51.876Z,84.17
2018-02-02T02:59:52.499Z,84.27
2018-02-02T03:00:46.955Z,83.23
2018-02-02T03:00:47.553Z,83.23
2018-02-02T03:00:48.154Z,83.32
2018-02-02T03:00:48.755Z,83.23
2018-02-02T03:00:49.353Z,83.32
2018-02-02T03:00:49.954Z,83.42
2018-02-02T03:00:50.552Z,83.32
2018-02-02T03:00:51.152Z,83.61
2018-02-02T03:01:45.635Z,85.03
2018-02-02T03:01:46.229Z,85.50
2018-02-02T03:01:46.829Z,84.94
2018-02-02T03:01:47.429Z,85.41
2018-02-02T03:01:48.030Z,84.94
2018-02-02T03:01:48.628Z,85.41
2018-02-02T03:01:49.228Z,84.46
2018-02-02T03:01:49.828Z,84.84
2018-02-02T03:02:43.285Z,84.65
2018-02-02T03:02:43.884Z,84.65
2018-02-02T03:02:44.482Z,84.94
2018-02-02T03:02:45.083Z,84.17
2018-02-02T03:02:45.683Z,84.46
2018-02-02T03:02:46.280Z,84.94
2018-02-02T03:02:46.880Z,84.65
2018-02-02T03:02:47.481Z,84.65
2018-02-02T03:03:40.937Z,83.80
2018-02-02T03:03:41.541Z,83.70
2018-02-02T03:03:42.133Z,83.89
2018-02-02T03:03:42.732Z,83.61
2018-02-02T03:03:43.333Z,83.61
2018-02-02T03:03:43.937Z,83.70
2018-02-02T03:03:44.534Z,83.98
2018-02-02T03:03:45.132Z,83.89
2018-02-02T03:04:38.622Z,83.80
2018-02-02T03:04:39.186Z,83.89
2018-02-02T03:04:39.785Z,83.80
2018-02-02T03:04:40.385Z,83.51
2018-02-02T03:04:40.985Z,83.61
2018-02-02T03:04:41.585Z,83.51
2018-02-02T03:04:42.184Z,83.70
2018-02-02T03:04:42.784Z,83.70
2018-02-02T03:05:36.241Z,83.70
2018-02-02T03:05:36.838Z,83.80
2018-02-02T03:05:37.437Z,83.70
2018-02-02T03:05:38.039Z,83.80
2018-02-02T03:05:38.639Z,83.80
2018-02-02T03:05:39.237Z,83.89
2018-02-02T03:05:39.841Z,83.89
2018-02-02T03:05:40.437Z,83.89
2018-02-02T03:06:33.894Z,83.23
2018-02-02T03:06:34.489Z,82.75
2018-02-02T03:06:35.089Z,83.32
2018-02-02T03:06:35.688Z,82.94
2018-02-02T03:06:36.288Z,83.32
2018-02-02T03:06:36.888Z,83.32
2018-02-02T03:06:37.488Z,82.75
2018-02-02T03:06:38.087Z,83.23
2018-02-02T03:07:31.545Z,83.32
2018-02-02T03:07:32.142Z,83.23
2018-02-02T03:07:32.740Z,83.32
2018-02-02T03:07:33.341Z,83.23
2018-02-02T03:07:33.940Z,83.23
2018-02-02T03:07:34.542Z,83.23
2018-02-02T03:07:35.143Z,83.23
2018-02-02T03:07:35.740Z,83.23
2018-02-02T03:08:29.196Z,83.80
2018-02-02T03:08:29.793Z,83.80
2018-02-02T03:08:30.392Z,83.70
2018-02-02T03:08:30.991Z,83.80
2018-02-02T03:08:31.596Z,83.89
2018-02-02T03:08:32.192Z,83.80
2018-02-02T03:08:32.797Z,83.70
2018-02-02T03:08:33.394Z,83.70
2018-02-02T03:09:26.847Z,83.70
2018-02-02T03:09:27.444Z,83.89
2018-02-02T03:09:28.043Z,83.89
2018-02-02T03:09:28.644Z,83.70
2018-02-02T03:09:29.244Z,83.51
2018-02-02T03:09:29.844Z,83.61
2018-02-02T03:09:30.447Z,83.70
2018-02-02T03:09:31.043Z,83.89
2018-02-02T03:10:24.532Z,83.70
2018-02-02T03:10:25.096Z,83.61
2018-02-02T03:10:25.697Z,83.70
2018-02-02T03:10:26.296Z,83.70
2018-02-02T03:10:26.896Z,83.61
2018-02-02T03:10:27.497Z,83.61
2018-02-02T03:10:28.104Z,83.61
2018-02-02T03:10:28.696Z,83.70
2018-02-02T03:11:22.152Z,84.55
2018-02-02T03:11:22.747Z,84.36
2018-02-02T03:11:23.348Z,84.65
2018-02-02T03:11:23.948Z,84.27
2018-02-02T03:11:24.547Z,84.27
2018-02-02T03:11:25.147Z,84.27
2018-02-02T03:11:25.750Z,84.36
2018-02-02T03:11:26.346Z,84.36
2018-02-02T03:12:19.804Z,84.84
2018-02-02T03:12:20.401Z,84.74
2018-02-02T03:12:20.998Z,84.74
2018-02-02T03:12:21.604Z,84.74
2018-02-02T03:12:22.199Z,84.94
2018-02-02T03:12:22.800Z,84.65
2018-02-02T03:12:23.401Z,84.65
2018-02-02T03:12:24.004Z,84.55
2018-02-02T03:13:17.455Z,84.65
2018-02-02T03:13:18.051Z,84.74
2018-02-02T03:13:18.652Z,84.74
2018-02-02T03:13:19.256Z,84.74
2018-02-02T03:13:19.850Z,84.84
2018-02-02T03:13:20.450Z,84.74
2018-02-02T03:13:21.055Z,84.65
2018-02-02T03:13:21.651Z,84.74
2018-02-02T03:14:15.106Z,84.74
2018-02-02T03:14:15.703Z,84.84
2018-02-02T03:14:16.303Z,85.03
2018-02-02T03:14:16.902Z,84.94
2018-02-02T03:14:17.503Z,85.03
2018-02-02T03:14:18.104Z,85.41
2018-02-02T03:14:18.705Z,85.41
2018-02-02T03:14:19.301Z,84.94
2018-02-02T03:15:12.762Z,85.13
2018-02-02T03:15:13.356Z,85.31
2018-02-02T03:15:13.954Z,85.41
2018-02-02T03:15:14.552Z,85.41
2018-02-02T03:15:15.154Z,85.41
2018-02-02T03:15:15.755Z,85.41
2018-02-02T03:15:16.356Z,85.22
2018-02-02T03:15:16.953Z,85.31
2018-02-02T03:16:10.443Z,85.60
2018-02-02T03:16:11.006Z,85.88
2018-02-02T03:16:11.606Z,86.07
2018-02-02T03:16:12.210Z,85.69
2018-02-02T03:16:12.807Z,86.07
2018-02-02T03:16:13.404Z,85.88
2018-02-02T03:16:14.012Z,86.07
2018-02-02T03:16:14.616Z,85.88
2018-02-02T03:17:08.061Z,86.16
2018-02-02T03:17:08.658Z,86.07
2018-02-02T03:17:09.258Z,85.97
2018-02-02T03:17:09.857Z,86.64
2018-02-02T03:17:10.458Z,86.26
2018-02-02T03:17:11.058Z,86.26
2018-02-02T03:17:11.662Z,86.45
2018-02-02T03:17:12.258Z,86.21
2018-02-02T03:18:05.714Z,86.35
2018-02-02T03:18:06.309Z,86.35
2018-02-02T03:18:06.910Z,86.45
2018-02-02T03:18:07.510Z,86.35
2018-02-02T03:18:08.109Z,86.26
2018-02-02T03:18:08.711Z,86.26
2018-02-02T03:18:09.311Z,86.55
2018-02-02T03:18:09.907Z,86.16
2018-02-02T03:19:03.365Z,85.97
2018-02-02T03:19:03.963Z,86.16
2018-02-02T03:19:04.561Z,86.45
2018-02-02T03:19:05.161Z,85.97
2018-02-02T03:19:05.761Z,86.35
2018-02-02T03:19:06.362Z,86.26
2018-02-02T03:19:06.966Z,86.45
2018-02-02T03:19:07.562Z,86.26
2018-02-02T03:20:01.019Z,86.26
2018-02-02T03:20:01.613Z,86.26
2018-02-02T03:20:02.213Z,86.26
2018-02-02T03:20:02.813Z,86.07
2018-02-02T03:20:03.414Z,86.16
2018-02-02T03:20:04.013Z,86.07
2018-02-02T03:20:04.616Z,86.16
2018-02-02T03:20:05.212Z,86.02
2018-02-02T03:20:58.681Z,85.88
2018-02-02T03:20:59.265Z,85.88
2018-02-02T03:20:59.864Z,86.07
2018-02-02T03:21:00.466Z,85.83
2018-02-02T03:21:01.066Z,85.78
2018-02-02T03:21:01.665Z,85.88
2018-02-02T03:21:02.267Z,86.11
2018-02-02T03:21:02.865Z,85.83
2018-02-02T03:21:56.353Z,85.97
2018-02-02T03:21:56.917Z,86.02
2018-02-02T03:21:57.518Z,85.88
2018-02-02T03:21:58.116Z,85.93
2018-02-02T03:21:58.718Z,85.93
2018-02-02T03:21:59.317Z,86.21
2018-02-02T03:21:59.917Z,86.07
2018-02-02T03:22:00.514Z,86.21
2018-02-02T03:22:53.972Z,86.59
2018-02-02T03:22:54.568Z,86.21
2018-02-02T03:22:55.168Z,86.49
2018-02-02T03:22:55.767Z,86.59
2018-02-02T03:22:56.368Z,86.40
2018-02-02T03:22:56.970Z,86.30
2018-02-02T03:22:57.569Z,86.26
2018-02-02T03:22:58.166Z,86.30
2018-02-02T03:23:51.624Z,86.11
2018-02-02T03:23:52.220Z,86.11
2018-02-02T03:23:52.819Z,86.02
2018-02-02T03:23:53.419Z,85.97
2018-02-02T03:23:54.022Z,86.30
2018-02-02T03:23:54.620Z,86.11
2018-02-02T03:23:55.222Z,86.21
2018-02-02T03:23:55.820Z,86.11
2018-02-02T03:24:49.276Z,86.68
2018-02-02T03:24:49.871Z,86.68
2018-02-02T03:24:50.472Z,86.49
2018-02-02T03:24:51.073Z,86.45
2018-02-02T03:24:51.672Z,86.59
2018-02-02T03:24:52.272Z,86.59
2018-02-02T03:24:52.872Z,86.55
2018-02-02T03:24:53.471Z,86.30
2018-02-02T03:25:46.926Z,86.40
2018-02-02T03:25:47.522Z,86.59
2018-02-02T03:25:48.123Z,86.49
2018-02-02T03:25:48.722Z,86.49
2018-02-02T03:25:49.326Z,86.45
2018-02-02T03:25:49.926Z,86.45
2018-02-02T03:25:50.525Z,86.49
2018-02-02T03:25:51.121Z,86.49
2018-02-02T03:26:44.604Z,85.93
2018-02-02T03:26:45.172Z,85.64
2018-02-02T03:26:45.772Z,86.11
2018-02-02T03:26:46.371Z,85.97
2018-02-02T03:26:46.973Z,85.93
2018-02-02T03:26:47.573Z,85.93
2018-02-02T03:26:48.178Z,85.93
2018-02-02T03:26:48.770Z,86.11
2018-02-02T03:27:42.252Z,86.11
2018-02-02T03:27:42.824Z,86.02
2018-02-02T03:27:43.425Z,86.02
2018-02-02T03:27:44.029Z,86.21
2018-02-02T03:27:44.627Z,86.21
2018-02-02T03:27:45.225Z,86.11
2018-02-02T03:27:45.825Z,86.21
2018-02-02T03:27:46.425Z,86.21
2018-02-02T03:28:39.878Z,84.98
2018-02-02T03:28:40.475Z,84.98
2018-02-02T03:28:41.076Z,85.17
2018-02-02T03:28:41.676Z,85.31
2018-02-02T03:28:42.278Z,85.07
2018-02-02T03:28:42.876Z,85.26
2018-02-02T03:28:43.478Z,85.26
2018-02-02T03:28:44.076Z,85.17
2018-02-02T03:29:37.530Z,84.88
2018-02-02T03:29:38.128Z,84.88
2018-02-02T03:29:38.727Z,84.88
2018-02-02T03:29:39.328Z,84.98
2018-02-02T03:29:39.925Z,84.98
2018-02-02T03:29:40.528Z,84.46
2018-02-02T03:29:41.130Z,84.50
2018-02-02T03:29:41.727Z,84.98
2018-02-02T03:30:35.183Z,85.36
2018-02-02T03:30:35.780Z,85.17
2018-02-02T03:30:36.380Z,85.07
2018-02-02T03:30:36.982Z,85.31
2018-02-02T03:30:37.581Z,85.26
2018-02-02T03:30:38.180Z,85.07
2018-02-02T03:30:38.780Z,85.17